Time;durP1;ratioP1;P1;durP2;ratioP2;P2;SDS_P1;SDS_P2;PMS_P1;PMS_P2;Temp;Humidity;BMP_temperature;BMP_pressure;BME280_temperature;BME280_humidity;BME280_pressure;Samples;Min_cycle;Max_cycle;Signal;HPM_P1;HPM_P2
2023/08/01 00:04:54;;;;;;;;;;;16.20;99.90;;;;;;12503909;28;20448;-47
2023/08/01 00:10:56;;;;;;;;;;;16.20;99.90;;;;;;12493901;28;19960;-50
2023/08/01 00:16:57;;;;;;;;;;;16.20;99.90;;;;;;12515773;28;19921;-51
2023/08/01 00:22:59;;;;;;;;;;;16.10;99.90;;;;;;12511969;28;20156;-47
2023/08/01 00:29:01;;;;;;;;;;;16.00;99.90;;;;;;12500578;28;19928;-47
2023/08/01 00:35:03;;;;;;;;;;;15.90;99.90;;;;;;12507802;28;20491;-49
2023/08/01 00:41:06;;;;;;;;;;;15.90;99.90;;;;;;12510809;28;20304;-47
2023/08/01 00:47:08;;;;;;;;;;;15.80;99.90;;;;;;12498251;28;19921;-48
2023/08/01 00:53:11;;;;;;;;;;;15.80;99.90;;;;;;12515365;28;19921;-47
2023/08/01 00:59:13;;;;;;;;;;;15.70;99.90;;;;;;12509474;28;19920;-48
2023/08/01 01:05:15;;;;;;;;;;;15.60;99.90;;;;;;12508799;28;20022;-47
2023/08/01 01:11:17;;;;;;;;;;;15.50;99.90;;;;;;12498091;28;19936;-47
2023/08/01 01:17:18;;;;;;;;;;;15.40;99.90;;;;;;12485497;28;20423;-47
2023/08/01 01:23:21;;;;;;;;;;;15.40;99.90;;;;;;12482609;28;20717;-47
2023/08/01 01:29:23;;;;;;;;;;;15.30;99.90;;;;;;12499519;28;19921;-47
2023/08/01 01:35:25;;;;;;;;;;;15.30;99.90;;;;;;12506902;28;20368;-47
2023/08/01 01:41:27;;;;;;;;;;;15.30;99.90;;;;;;12490320;28;19921;-48
2023/08/01 01:47:28;;;;;;;;;;;15.30;99.90;;;;;;12521235;28;19971;-49
2023/08/01 01:53:30;;;;;;;;;;;15.20;99.90;;;;;;12495747;28;19921;-48
2023/08/01 01:59:32;;;;;;;;;;;15.20;99.90;;;;;;12509066;28;21199;-49
2023/08/01 02:05:33;;;;;;;;;;;15.20;99.90;;;;;;12486749;28;20387;-49
2023/08/01 02:11:35;;;;;;;;;;;15.10;99.90;;;;;;12482165;28;19960;-47
2023/08/01 02:17:37;;;;;;;;;;;15.10;99.90;;;;;;12509219;28;19924;-51
2023/08/01 02:23:39;;;;;;;;;;;15.10;99.90;;;;;;12506806;28;19925;-50
2023/08/01 02:29:40;;;;;;;;;;;15.00;99.90;;;;;;12489531;28;20075;-49
2023/08/01 02:35:42;;;;;;;;;;;15.00;99.90;;;;;;12480873;28;20019;-49
2023/08/01 02:41:44;;;;;;;;;;;15.00;99.90;;;;;;12504902;28;19920;-48
2023/08/01 02:47:46;;;;;;;;;;;15.00;99.90;;;;;;12501619;28;19928;-48
2023/08/01 02:53:48;;;;;;;;;;;15.00;99.90;;;;;;12499751;28;20012;-48
2023/08/01 02:59:50;;;;;;;;;;;15.00;99.90;;;;;;12516000;28;19975;-47
2023/08/01 03:05:52;;;;;;;;;;;15.00;99.90;;;;;;12508450;28;20293;-48
2023/08/01 03:11:54;;;;;;;;;;;15.00;99.90;;;;;;12521220;28;20004;-48
2023/08/01 03:17:55;;;;;;;;;;;15.00;99.90;;;;;;12521582;28;20022;-49
2023/08/01 03:23:57;;;;;;;;;;;15.00;99.90;;;;;;12520953;28;20047;-48
2023/08/01 03:29:59;;;;;;;;;;;14.90;99.90;;;;;;12506829;28;20039;-49
2023/08/01 03:36:01;;;;;;;;;;;14.90;99.90;;;;;;12510327;28;20295;-48
2023/08/01 03:42:03;;;;;;;;;;;14.80;99.90;;;;;;12507315;28;19971;-49
2023/08/01 03:48:04;;;;;;;;;;;14.80;99.90;;;;;;12507662;28;19936;-47
2023/08/01 03:54:06;;;;;;;;;;;14.80;99.90;;;;;;12496279;28;19921;-47
2023/08/01 04:00:17;;;;;;;;;;;14.80;99.90;;;;;;12507178;28;19921;-47
2023/08/01 04:06:19;;;;;;;;;;;14.80;99.90;;;;;;12500235;28;19925;-48
2023/08/01 04:12:21;;;;;;;;;;;14.90;99.90;;;;;;12510020;28;20019;-48
2023/08/01 04:18:23;;;;;;;;;;;14.90;99.90;;;;;;12507364;28;20015;-48
2023/08/01 04:24:25;;;;;;;;;;;14.90;99.90;;;;;;12508168;28;20015;-48
2023/08/01 04:30:27;;;;;;;;;;;14.90;99.90;;;;;;12497487;28;19960;-48
2023/08/01 04:36:28;;;;;;;;;;;15.00;99.90;;;;;;12502335;28;20399;-52
2023/08/01 04:42:30;;;;;;;;;;;15.00;99.90;;;;;;12515961;28;19936;-48
2023/08/01 04:48:32;;;;;;;;;;;15.00;99.90;;;;;;12494779;28;19948;-49
2023/08/01 04:54:33;;;;;;;;;;;15.00;99.90;;;;;;12489209;28;20358;-50
2023/08/01 05:00:36;;;;;;;;;;;15.10;99.90;;;;;;12506170;28;19986;-47
2023/08/01 05:06:40;;;;;;;;;;;15.10;99.90;;;;;;12498712;28;19932;-48
2023/08/01 05:12:42;;;;;;;;;;;15.10;99.90;;;;;;12495217;28;19932;-49
2023/08/01 05:18:44;;;;;;;;;;;15.10;99.90;;;;;;12511343;28;19995;-49
2023/08/01 05:24:45;;;;;;;;;;;15.10;99.90;;;;;;12504124;28;19959;-47
2023/08/01 05:30:47;;;;;;;;;;;15.20;99.90;;;;;;12506649;28;20077;-49
2023/08/01 05:36:50;;;;;;;;;;;15.20;99.90;;;;;;12501261;28;19920;-48
2023/08/01 05:42:52;;;;;;;;;;;15.30;99.90;;;;;;12485433;28;19925;-48
2023/08/01 05:48:53;;;;;;;;;;;15.30;99.90;;;;;;12502027;28;19928;-47
2023/08/01 05:54:55;;;;;;;;;;;15.30;99.90;;;;;;12497110;28;19975;-47
2023/08/01 06:00:57;;;;;;;;;;;15.30;99.90;;;;;;12504692;28;19956;-48
2023/08/01 06:06:59;;;;;;;;;;;15.30;99.90;;;;;;12486949;28;19924;-47
2023/08/01 06:13:01;;;;;;;;;;;15.30;99.90;;;;;;12518803;28;20643;-49
2023/08/01 06:19:03;;;;;;;;;;;15.30;99.90;;;;;;12517424;28;19966;-52
2023/08/01 06:25:05;;;;;;;;;;;15.30;99.90;;;;;;12518266;28;19994;-47
2023/08/01 06:31:07;;;;;;;;;;;15.20;99.90;;;;;;12494389;28;20382;-48
2023/08/01 06:37:10;;;;;;;;;;;15.30;99.90;;;;;;12526293;28;19969;-47
2023/08/01 06:43:11;;;;;;;;;;;15.30;99.90;;;;;;12516721;28;20566;-47
2023/08/01 06:49:14;;;;;;;;;;;15.30;99.90;;;;;;12518708;28;19921;-47
2023/08/01 06:55:15;;;;;;;;;;;15.40;99.90;;;;;;12521554;28;19925;-47
2023/08/01 07:01:17;;;;;;;;;;;15.40;99.90;;;;;;12511333;28;20281;-51
2023/08/01 07:07:19;;;;;;;;;;;15.50;99.90;;;;;;12517207;28;20416;-48
2023/08/01 07:13:22;;;;;;;;;;;15.60;99.90;;;;;;12522598;28;20087;-47
2023/08/01 07:19:25;;;;;;;;;;;15.60;99.90;;;;;;12518603;28;20003;-47
2023/08/01 07:25:27;;;;;;;;;;;15.70;99.90;;;;;;12502085;28;19923;-50
2023/08/01 07:31:29;;;;;;;;;;;15.80;99.90;;;;;;12523308;28;19945;-51
2023/08/01 07:37:33;;;;;;;;;;;15.70;99.90;;;;;;12529084;28;19925;-49
2023/08/01 07:43:34;;;;;;;;;;;15.60;99.90;;;;;;12509951;28;19964;-47
2023/08/01 07:49:36;;;;;;;;;;;15.60;99.90;;;;;;12488703;28;20020;-49
2023/08/01 07:55:38;;;;;;;;;;;15.90;99.90;;;;;;12522759;28;20437;-48
2023/08/01 08:01:40;;;;;;;;;;;16.20;99.90;;;;;;12507864;28;20019;-50
2023/08/01 08:07:41;;;;;;;;;;;16.30;99.90;;;;;;12502922;28;19988;-48
2023/08/01 08:13:46;;;;;;;;;;;16.30;99.90;;;;;;12510332;28;20380;-47
2023/08/01 08:19:48;;;;;;;;;;;16.50;99.90;;;;;;12494688;28;19995;-50
2023/08/01 08:25:52;;;;;;;;;;;16.70;99.90;;;;;;12509385;28;19925;-47
2023/08/01 08:31:54;;;;;;;;;;;16.40;99.90;;;;;;12485888;28;19920;-47
2023/08/01 08:37:58;;;;;;;;;;;16.20;99.90;;;;;;12517664;28;19944;-51
2023/08/01 08:44:01;;;;;;;;;;;16.10;99.90;;;;;;12497532;28;19925;-48
2023/08/01 08:50:03;;;;;;;;;;;16.50;99.90;;;;;;12513511;28;20280;-48
2023/08/01 08:56:07;;;;;;;;;;;16.90;99.90;;;;;;12522055;28;20173;-48
2023/08/01 09:02:09;;;;;;;;;;;17.10;99.90;;;;;;12511225;28;19924;-50
2023/08/01 09:08:15;;;;;;;;;;;17.20;99.90;;;;;;12501184;28;19925;-47
2023/08/01 09:14:18;;;;;;;;;;;17.20;99.90;;;;;;12502143;28;19972;-48
2023/08/01 09:20:20;;;;;;;;;;;17.20;99.90;;;;;;12491050;28;20012;-49
2023/08/01 09:26:21;;;;;;;;;;;17.70;99.90;;;;;;12481511;28;19925;-48
2023/08/01 09:32:23;;;;;;;;;;;17.60;99.90;;;;;;12502291;28;20019;-48
2023/08/01 09:38:26;;;;;;;;;;;17.50;99.90;;;;;;12489381;28;19921;-49
2023/08/01 09:44:29;;;;;;;;;;;17.50;99.90;;;;;;12511913;28;19921;-48
2023/08/01 09:50:31;;;;;;;;;;;18.10;99.90;;;;;;12489642;28;19921;-47
2023/08/01 09:56:33;;;;;;;;;;;18.00;99.90;;;;;;12484237;28;19978;-48
2023/08/01 10:02:35;;;;;;;;;;;17.70;99.90;;;;;;12513198;28;20270;-50
2023/08/01 10:08:38;;;;;;;;;;;17.80;99.90;;;;;;12492588;28;20332;-49
2023/08/01 10:14:40;;;;;;;;;;;18.10;99.90;;;;;;12493238;28;19925;-48
2023/08/01 10:20:43;;;;;;;;;;;17.70;99.90;;;;;;12514908;28;20286;-47
2023/08/01 10:26:46;;;;;;;;;;;17.40;99.90;;;;;;12483974;28;19928;-49
2023/08/01 10:32:54;;;;;;;;;;;16.90;99.90;;;;;;12510356;28;19928;-49
2023/08/01 10:38:56;;;;;;;;;;;16.60;99.90;;;;;;12491707;28;19921;-48
2023/08/01 10:44:58;;;;;;;;;;;16.70;99.90;;;;;;12511425;28;19921;-48
2023/08/01 10:51:02;;;;;;;;;;;16.90;99.90;;;;;;12512913;28;20350;-50
2023/08/01 10:57:05;;;;;;;;;;;17.80;99.90;;;;;;12497814;28;19924;-49
2023/08/01 11:03:07;;;;;;;;;;;17.90;99.90;;;;;;12497210;28;19932;-48
2023/08/01 11:09:17;;;;;;;;;;;17.40;99.90;;;;;;12496849;28;19970;-47
2023/08/01 11:15:18;;;;;;;;;;;17.20;99.90;;;;;;12494613;28;20440;-47
2023/08/01 11:21:25;;;;;;;;;;;17.50;99.90;;;;;;12498565;28;19970;-50
2023/08/01 11:27:27;;;;;;;;;;;17.60;99.90;;;;;;12502917;28;20486;-49
2023/08/01 11:33:29;;;;;;;;;;;17.60;99.90;;;;;;12509847;28;19983;-48
2023/08/01 11:39:31;;;;;;;;;;;17.30;99.90;;;;;;12497656;28;19929;-48
2023/08/01 11:45:33;;;;;;;;;;;17.20;99.90;;;;;;12505535;28;19950;-50
2023/08/01 11:51:44;;;;;;;;;;;16.80;99.90;;;;;;12493060;28;19925;-47
2023/08/01 11:57:53;;;;;;;;;;;16.70;99.90;;;;;;12499639;28;20446;-48
2023/08/01 12:03:55;;;;;;;;;;;16.60;99.90;;;;;;12509538;28;19967;-47
2023/08/01 12:09:58;;;;;;;;;;;17.20;99.90;;;;;;12512907;28;19928;-49
2023/08/01 12:16:00;;;;;;;;;;;18.30;99.90;;;;;;12489687;28;20023;-49
2023/08/01 12:22:02;;;;;;;;;;;18.70;99.90;;;;;;12512123;28;19928;-47
2023/08/01 12:28:04;;;;;;;;;;;18.80;99.90;;;;;;12505436;28;20063;-49
2023/08/01 12:34:06;;;;;;;;;;;18.80;99.90;;;;;;12475153;28;19920;-50
2023/08/01 12:40:08;;;;;;;;;;;18.40;99.90;;;;;;12521170;28;19924;-50
2023/08/01 12:46:10;;;;;;;;;;;18.30;99.90;;;;;;12507879;28;20015;-49
2023/08/01 12:52:21;;;;;;;;;;;18.30;99.90;;;;;;12508815;28;19934;-47
2023/08/01 12:58:23;;;;;;;;;;;18.20;99.90;;;;;;12499995;28;20391;-49
2023/08/01 13:04:25;;;;;;;;;;;18.10;99.90;;;;;;12511221;28;20394;-51
2023/08/01 13:10:29;;;;;;;;;;;17.80;99.90;;;;;;12501117;28;19959;-48
2023/08/01 13:16:31;;;;;;;;;;;17.50;99.90;;;;;;12516442;28;19928;-47
2023/08/01 13:22:33;;;;;;;;;;;16.60;99.90;;;;;;12505505;28;20284;-47
2023/08/01 13:28:34;;;;;;;;;;;15.80;99.90;;;;;;12499747;28;19983;-47
2023/08/01 13:34:36;;;;;;;;;;;15.60;99.90;;;;;;12515158;28;19932;-50
2023/08/01 13:40:38;;;;;;;;;;;15.70;99.90;;;;;;12511982;28;19969;-47
2023/08/01 13:46:41;;;;;;;;;;;16.20;99.90;;;;;;12493633;28;19963;-49
2023/08/01 13:52:42;;;;;;;;;;;16.50;99.90;;;;;;12505320;28;19924;-48
2023/08/01 13:58:44;;;;;;;;;;;17.00;99.90;;;;;;12498219;28;19966;-47
2023/08/01 14:04:46;;;;;;;;;;;17.60;99.90;;;;;;12513749;28;19925;-48
2023/08/01 14:10:48;;;;;;;;;;;17.90;99.90;;;;;;12510547;28;19979;-49
2023/08/01 14:16:50;;;;;;;;;;;18.10;99.90;;;;;;12496207;28;19974;-51
2023/08/01 14:22:52;;;;;;;;;;;18.00;99.90;;;;;;12499971;28;19969;-50
2023/08/01 14:28:54;;;;;;;;;;;17.80;99.90;;;;;;12496757;28;19928;-49
2023/08/01 14:34:55;;;;;;;;;;;17.70;99.90;;;;;;12506884;28;20375;-50
2023/08/01 14:40:57;;;;;;;;;;;18.30;99.90;;;;;;12526735;28;20003;-49
2023/08/01 14:47:02;;;;;;;;;;;18.70;99.90;;;;;;12496132;28;20151;-48
2023/08/01 14:53:04;;;;;;;;;;;19.10;99.90;;;;;;12486919;28;19956;-48
2023/08/01 14:59:05;;;;;;;;;;;19.20;99.90;;;;;;12525593;28;19924;-50
2023/08/01 15:05:07;;;;;;;;;;;18.60;99.90;;;;;;12496963;28;19925;-50
2023/08/01 15:11:09;;;;;;;;;;;18.00;99.90;;;;;;12506543;28;20028;-49
2023/08/01 15:17:11;;;;;;;;;;;17.60;99.90;;;;;;12514116;28;20782;-48
2023/08/01 15:23:13;;;;;;;;;;;17.60;99.90;;;;;;12519403;28;19929;-49
2023/08/01 15:29:15;;;;;;;;;;;17.50;99.90;;;;;;12501272;28;20007;-50
2023/08/01 15:35:16;;;;;;;;;;;17.30;99.90;;;;;;12515066;28;19921;-47
2023/08/01 15:41:18;;;;;;;;;;;17.30;99.90;;;;;;12504751;28;19928;-49
2023/08/01 15:47:20;;;;;;;;;;;17.60;99.90;;;;;;12512976;28;19921;-51
2023/08/01 15:53:21;;;;;;;;;;;18.00;99.90;;;;;;12479378;28;19927;-48
2023/08/01 15:59:23;;;;;;;;;;;18.40;99.90;;;;;;12511055;28;19921;-50
2023/08/01 16:05:25;;;;;;;;;;;18.10;99.90;;;;;;12464087;28;19921;-47
2023/08/01 16:11:27;;;;;;;;;;;18.00;99.90;;;;;;12526189;28;20028;-49
2023/08/01 16:17:28;;;;;;;;;;;18.10;99.90;;;;;;12499576;28;20063;-49
2023/08/01 16:23:30;;;;;;;;;;;18.10;99.90;;;;;;12517640;28;19929;-47
2023/08/01 16:29:32;;;;;;;;;;;18.00;99.90;;;;;;12493443;28;20446;-48
2023/08/01 16:35:33;;;;;;;;;;;17.90;99.90;;;;;;12521836;28;19970;-49
2023/08/01 16:41:35;;;;;;;;;;;18.10;99.90;;;;;;12506933;28;20015;-48
2023/08/01 16:47:37;;;;;;;;;;;18.60;99.90;;;;;;12512326;28;20007;-48
2023/08/01 16:53:44;;;;;;;;;;;19.00;99.90;;;;;;12492972;28;19925;-48
2023/08/01 16:59:46;;;;;;;;;;;19.10;99.90;;;;;;12490025;28;19921;-50
2023/08/01 17:05:47;;;;;;;;;;;18.80;99.90;;;;;;12493188;28;20381;-47
2023/08/01 17:11:49;;;;;;;;;;;18.60;99.90;;;;;;12493421;28;20337;-47
2023/08/01 17:17:51;;;;;;;;;;;18.10;99.90;;;;;;12494605;28;20419;-47
2023/08/01 17:23:53;;;;;;;;;;;18.10;99.90;;;;;;12501769;28;19925;-49
2023/08/01 17:29:55;;;;;;;;;;;17.90;99.90;;;;;;12517227;28;19921;-48
2023/08/01 17:35:56;;;;;;;;;;;17.80;99.90;;;;;;12509302;28;20002;-49
2023/08/01 17:42:00;;;;;;;;;;;18.30;99.90;;;;;;12496039;28;20377;-48
2023/08/01 17:48:02;;;;;;;;;;;18.10;99.90;;;;;;12479305;28;19952;-48
2023/08/01 17:54:05;;;;;;;;;;;17.90;99.90;;;;;;12501145;28;20283;-51
2023/08/01 18:00:07;;;;;;;;;;;17.70;99.90;;;;;;12509378;28;19979;-48
2023/08/01 18:06:12;;;;;;;;;;;17.50;99.90;;;;;;12458049;28;19921;-47
2023/08/01 18:12:14;;;;;;;;;;;17.30;99.90;;;;;;12486376;28;19925;-50
2023/08/01 18:18:18;;;;;;;;;;;17.30;99.90;;;;;;12493400;28;19986;-47
2023/08/01 18:24:19;;;;;;;;;;;17.20;99.90;;;;;;12495238;28;19920;-51
2023/08/01 18:30:22;;;;;;;;;;;17.10;99.90;;;;;;12489482;28;19929;-47
2023/08/01 18:36:24;;;;;;;;;;;17.00;99.90;;;;;;12505254;28;20034;-46
2023/08/01 18:42:26;;;;;;;;;;;16.90;99.90;;;;;;12494346;28;20081;-49
2023/08/01 18:48:28;;;;;;;;;;;16.80;99.90;;;;;;12513866;28;20514;-48
2023/08/01 18:54:29;;;;;;;;;;;16.70;99.90;;;;;;12495155;28;19921;-49
2023/08/01 19:00:32;;;;;;;;;;;16.70;99.90;;;;;;12503639;28;19971;-48
2023/08/01 19:06:33;;;;;;;;;;;16.60;99.90;;;;;;12483273;28;20470;-50
2023/08/01 19:12:35;;;;;;;;;;;16.50;99.90;;;;;;12497129;28;19964;-51
2023/08/01 19:18:37;;;;;;;;;;;16.50;99.90;;;;;;12510789;28;19920;-47
2023/08/01 19:24:39;;;;;;;;;;;16.50;99.90;;;;;;12505192;28;20031;-48
2023/08/01 19:30:41;;;;;;;;;;;16.40;99.90;;;;;;12489647;28;19925;-48
2023/08/01 19:36:44;;;;;;;;;;;16.40;99.90;;;;;;12503196;28;19929;-49
2023/08/01 19:42:46;;;;;;;;;;;16.30;99.90;;;;;;12519871;28;19959;-49
2023/08/01 19:48:48;;;;;;;;;;;16.20;99.90;;;;;;12495335;28;20030;-48
2023/08/01 19:54:50;;;;;;;;;;;16.30;99.90;;;;;;12495163;28;19928;-49
2023/08/01 20:00:51;;;;;;;;;;;16.20;99.90;;;;;;12506071;28;19921;-48
2023/08/01 20:06:53;;;;;;;;;;;16.20;99.90;;;;;;12481183;28;20019;-49
2023/08/01 20:12:55;;;;;;;;;;;16.20;99.90;;;;;;12500605;28;20015;-49
2023/08/01 20:18:57;;;;;;;;;;;16.10;99.90;;;;;;12511136;28;19943;-48
2023/08/01 20:24:58;;;;;;;;;;;16.20;99.90;;;;;;12494028;28;20016;-47
2023/08/01 20:31:04;;;;;;;;;;;16.00;99.90;;;;;;12503465;28;20428;-51
2023/08/01 20:37:05;;;;;;;;;;;16.00;99.90;;;;;;12514754;28;19928;-49
2023/08/01 20:43:07;;;;;;;;;;;16.00;99.90;;;;;;12513714;28;19924;-47
2023/08/01 20:49:09;;;;;;;;;;;15.90;99.90;;;;;;12518165;28;19921;-50
2023/08/01 20:55:11;;;;;;;;;;;16.00;99.90;;;;;;12508764;28;20061;-48
2023/08/01 21:01:13;;;;;;;;;;;15.90;99.90;;;;;;12508394;28;20023;-47
2023/08/01 21:07:15;;;;;;;;;;;16.00;99.90;;;;;;12494011;28;19925;-47
2023/08/01 21:13:17;;;;;;;;;;;16.00;99.90;;;;;;12498487;28;19971;-48
2023/08/01 21:19:19;;;;;;;;;;;15.90;99.90;;;;;;12504132;28;19978;-48
2023/08/01 21:25:21;;;;;;;;;;;15.90;99.90;;;;;;12487551;28;20024;-49
2023/08/01 21:31:22;;;;;;;;;;;15.90;99.90;;;;;;12501716;28;19966;-50
2023/08/01 21:37:24;;;;;;;;;;;16.10;99.90;;;;;;12515681;28;19925;-50
2023/08/01 21:43:26;;;;;;;;;;;15.90;99.90;;;;;;12506840;28;19928;-48
2023/08/01 21:49:28;;;;;;;;;;;15.80;99.90;;;;;;12493171;28;19959;-50
2023/08/01 21:55:29;;;;;;;;;;;15.80;99.90;;;;;;12460885;28;19971;-48
2023/08/01 22:01:31;;;;;;;;;;;15.70;99.90;;;;;;12438725;28;20008;-51
2023/08/01 22:07:34;;;;;;;;;;;15.70;99.90;;;;;;12437232;28;20341;-49
2023/08/01 22:13:35;;;;;;;;;;;15.70;99.90;;;;;;12463497;28;19930;-48
2023/08/01 22:19:37;;;;;;;;;;;15.60;99.90;;;;;;12452651;28;19959;-47
2023/08/01 22:25:39;;;;;;;;;;;15.60;99.90;;;;;;12451781;28;19996;-50
2023/08/01 22:31:41;;;;;;;;;;;15.70;99.90;;;;;;12451918;28;19925;-50
2023/08/01 22:37:42;;;;;;;;;;;15.60;99.90;;;;;;12463515;28;20372;-51
2023/08/01 22:43:45;;;;;;;;;;;15.70;99.90;;;;;;12445704;28;19920;-48
2023/08/01 22:49:48;;;;;;;;;;;15.70;99.90;;;;;;12444883;28;20048;-49
2023/08/01 22:56:05;;;;;;;;;;;15.70;99.90;;;;;;12468555;28;19940;-51
2023/08/01 23:02:07;;;;;;;;;;;15.70;99.90;;;;;;12458531;28;20329;-48
2023/08/01 23:08:09;;;;;;;;;;;15.80;99.90;;;;;;12451808;28;20152;-48
2023/08/01 23:14:11;;;;;;;;;;;15.80;99.90;;;;;;12469306;28;19928;-50
2023/08/01 23:20:12;;;;;;;;;;;15.80;99.90;;;;;;12456622;28;19991;-48
2023/08/01 23:26:14;;;;;;;;;;;15.70;99.90;;;;;;12440540;28;19929;-48
2023/08/01 23:32:16;;;;;;;;;;;15.80;99.90;;;;;;12448090;28;20477;-48
2023/08/01 23:38:20;;;;;;;;;;;15.70;99.90;;;;;;12471992;28;19961;-48
2023/08/01 23:44:22;;;;;;;;;;;15.60;99.90;;;;;;12461851;28;20335;-47
2023/08/01 23:50:23;;;;;;;;;;;15.60;99.90;;;;;;12475977;28;19929;-48
2023/08/01 23:56:25;;;;;;;;;;;15.50;99.90;;;;;;12474875;28;19925;-48
